Time;durP1;ratioP1;P1;durP2;ratioP2;P2;SDS_P1;SDS_P2;PMS_P1;PMS_P2;Temp;Humidity;BMP_temperature;BMP_pressure;BME280_temperature;BME280_humidity;BME280_pressure;Samples;Min_cycle;Max_cycle;Signal;HPM_P1;HPM_P2
2023/08/12 00:00:10;;;;;;;15.93;7.37;;;20.70;99.90;;;;;;4986876;28;20254;-58
2023/08/12 00:02:40;;;;;;;12.80;7.07;;;20.80;99.90;;;;;;5008984;28;20226;-58
2023/08/12 00:05:10;;;;;;;11.73;6.63;;;20.70;99.90;;;;;;5007388;28;20217;-59
2023/08/12 00:07:42;;;;;;;11.40;6.87;;;20.70;99.90;;;;;;5001340;28;20230;-58
2023/08/12 00:10:12;;;;;;;10.93;6.60;;;20.70;99.90;;;;;;4999004;28;20246;-59
2023/08/12 00:12:40;;;;;;;12.47;7.13;;;20.70;99.90;;;;;;5009443;28;20198;-58
2023/08/12 00:15:10;;;;;;;12.03;6.63;;;20.70;99.90;;;;;;5004641;28;20568;-59
2023/08/12 00:17:41;;;;;;;13.43;6.43;;;20.60;99.90;;;;;;5005043;28;20231;-58
2023/08/12 00:20:12;;;;;;;13.93;6.07;;;20.60;99.90;;;;;;5007030;28;20229;-59
2023/08/12 00:22:45;;;;;;;11.00;5.60;;;20.70;99.90;;;;;;5006239;28;20221;-59
2023/08/12 00:25:13;;;;;;;10.77;6.07;;;20.60;99.90;;;;;;4998958;28;20234;-58
2023/08/12 00:27:42;;;;;;;7.00;5.80;;;20.50;99.90;;;;;;4983796;28;20213;-58
2023/08/12 00:30:11;;;;;;;10.90;5.50;;;20.50;99.90;;;;;;5001903;28;20307;-58
2023/08/12 00:32:40;;;;;;;9.77;5.57;;;20.50;99.90;;;;;;5010342;28;21069;-58
2023/08/12 00:35:09;;;;;;;11.50;5.40;;;20.50;99.90;;;;;;5005659;28;20226;-59
2023/08/12 00:37:37;;;;;;;11.97;5.10;;;20.40;99.90;;;;;;4988168;28;20233;-58
2023/08/12 00:40:09;;;;;;;10.80;5.33;;;20.30;99.90;;;;;;5001825;28;20195;-58
2023/08/12 00:42:37;;;;;;;10.90;5.07;;;20.30;99.90;;;;;;5004267;28;20205;-59
2023/08/12 00:45:10;;;;;;;7.57;5.43;;;20.30;99.90;;;;;;5002111;28;20325;-59
2023/08/12 00:47:39;;;;;;;9.50;5.67;;;20.20;99.90;;;;;;5008513;28;20222;-59
2023/08/12 00:50:09;;;;;;;7.53;5.77;;;20.30;99.90;;;;;;5004553;28;20219;-60
2023/08/12 00:52:38;;;;;;;12.83;5.50;;;20.30;99.90;;;;;;5002004;28;20596;-59
2023/08/12 00:55:09;;;;;;;8.07;4.37;;;20.30;99.90;;;;;;5009946;28;20211;-60
2023/08/12 00:57:37;;;;;;;6.73;5.03;;;20.30;99.90;;;;;;5003834;28;20201;-59
2023/08/12 01:00:07;;;;;;;6.80;4.83;;;20.30;99.90;;;;;;5004824;28;20226;-60
2023/08/12 01:02:36;;;;;;;5.37;4.80;;;20.20;99.90;;;;;;5000842;28;20225;-59
2023/08/12 01:05:05;;;;;;;11.07;5.27;;;20.20;99.90;;;;;;5006010;28;20221;-60
2023/08/12 01:07:34;;;;;;;7.90;5.53;;;20.20;99.90;;;;;;5002468;28;20308;-59
2023/08/12 01:10:02;;;;;;;10.57;5.27;;;20.20;99.90;;;;;;5009114;28;20329;-59
2023/08/12 01:12:37;;;;;;;10.40;5.23;;;20.20;99.90;;;;;;5005462;28;20205;-60
2023/08/12 01:15:10;;;;;;;14.93;5.50;;;20.30;99.90;;;;;;5006592;28;21048;-58
2023/08/12 01:17:42;;;;;;;11.73;5.50;;;20.30;99.90;;;;;;4999606;28;20228;-58
2023/08/12 01:20:12;;;;;;;11.50;6.20;;;20.20;99.90;;;;;;5002570;28;20225;-58
2023/08/12 01:22:42;;;;;;;15.10;6.13;;;20.20;99.90;;;;;;5005171;28;20596;-59
2023/08/12 01:25:12;;;;;;;8.13;5.90;;;20.20;99.90;;;;;;5005468;28;20221;-59
2023/08/12 01:27:41;;;;;;;12.00;6.60;;;20.20;99.90;;;;;;5001210;28;20202;-59
2023/08/12 01:30:10;;;;;;;11.93;6.60;;;20.20;99.90;;;;;;5002515;28;20222;-59
2023/08/12 01:32:43;;;;;;;7.80;6.10;;;20.20;99.90;;;;;;5000631;28;20221;-59
2023/08/12 01:35:18;;;;;;;8.93;6.40;;;20.20;99.90;;;;;;5002328;28;20222;-58
2023/08/12 01:37:47;;;;;;;8.97;6.13;;;20.20;99.90;;;;;;5004552;28;20319;-58
2023/08/12 01:40:19;;;;;;;8.13;5.83;;;20.20;99.90;;;;;;5002335;28;20236;-59
2023/08/12 01:42:48;;;;;;;11.70;5.97;;;20.20;99.90;;;;;;4997523;28;20245;-58
2023/08/12 01:45:19;;;;;;;14.20;6.27;;;20.10;99.90;;;;;;4981971;28;20948;-59
2023/08/12 01:47:50;;;;;;;10.47;6.20;;;20.10;99.90;;;;;;5007208;28;20229;-59
2023/08/12 01:50:21;;;;;;;9.90;6.57;;;20.10;99.90;;;;;;5004365;28;20291;-59
2023/08/12 01:52:49;;;;;;;10.17;6.87;;;20.10;99.90;;;;;;5004575;28;20239;-59
2023/08/12 01:55:19;;;;;;;11.97;6.77;;;20.00;99.90;;;;;;4999541;28;20313;-58
2023/08/12 01:57:48;;;;;;;10.03;6.13;;;20.00;99.90;;;;;;5002080;28;20273;-59
2023/08/12 02:00:17;;;;;;;14.13;7.00;;;20.00;99.90;;;;;;4999406;28;20218;-58
2023/08/12 02:02:47;;;;;;;10.57;6.90;;;20.00;99.90;;;;;;5005136;28;20260;-58
2023/08/12 02:05:15;;;;;;;13.97;7.47;;;20.00;99.90;;;;;;5002130;28;20728;-59
2023/08/12 02:07:44;;;;;;;7.77;6.17;;;20.00;99.90;;;;;;5005235;28;20247;-58
2023/08/12 02:10:15;;;;;;;7.17;6.43;;;20.00;99.90;;;;;;4965441;28;20230;-58
2023/08/12 02:12:44;;;;;;;11.03;6.83;;;20.00;99.90;;;;;;4985336;28;20190;-58
2023/08/12 02:15:12;;;;;;;11.43;6.97;;;20.00;99.90;;;;;;4987651;28;20257;-58
2023/08/12 02:17:41;;;;;;;10.80;6.70;;;20.00;99.90;;;;;;4983855;28;20240;-58
2023/08/12 02:20:10;;;;;;;12.10;6.73;;;20.00;99.90;;;;;;4994804;28;20218;-58
2023/08/12 02:22:38;;;;;;;12.37;6.83;;;20.10;99.90;;;;;;4989929;28;20235;-59
2023/08/12 02:25:08;;;;;;;11.63;6.93;;;20.10;99.90;;;;;;4989777;28;20580;-58
2023/08/12 02:27:36;;;;;;;10.57;6.77;;;20.10;99.90;;;;;;4986709;28;20195;-59
2023/08/12 02:30:07;;;;;;;11.40;7.23;;;20.00;99.90;;;;;;4988397;28;20235;-59
2023/08/12 02:32:36;;;;;;;11.60;6.77;;;20.00;99.90;;;;;;4987730;28;20219;-59
2023/08/12 02:35:04;;;;;;;9.30;6.87;;;20.00;99.90;;;;;;4988346;28;20689;-59
2023/08/12 02:37:33;;;;;;;10.03;6.63;;;19.90;99.90;;;;;;4986124;28;20265;-60
2023/08/12 02:40:04;;;;;;;11.23;7.27;;;20.00;99.90;;;;;;4983469;28;20195;-59
2023/08/12 02:42:32;;;;;;;11.30;7.27;;;19.90;99.90;;;;;;4972065;28;20210;-59
2023/08/12 02:45:01;;;;;;;12.80;7.83;;;20.00;99.90;;;;;;4984123;28;20265;-59
2023/08/12 02:47:31;;;;;;;14.63;7.93;;;19.90;99.90;;;;;;4989144;28;20309;-59
2023/08/12 02:49:59;;;;;;;16.63;7.43;;;19.90;99.90;;;;;;4973842;28;20724;-59
2023/08/12 02:52:27;;;;;;;15.13;7.47;;;20.00;99.90;;;;;;4991109;28;20719;-59
2023/08/12 02:54:56;;;;;;;16.20;8.47;;;19.90;99.90;;;;;;4987825;28;20266;-60
2023/08/12 02:57:24;;;;;;;17.63;8.97;;;19.90;99.90;;;;;;4984739;28;20219;-59
2023/08/12 02:59:52;;;;;;;17.00;8.67;;;19.90;99.90;;;;;;4986055;28;20227;-59
2023/08/12 03:02:21;;;;;;;15.67;9.40;;;19.80;99.90;;;;;;4981450;28;20235;-59
2023/08/12 03:04:51;;;;;;;11.57;9.23;;;19.80;99.90;;;;;;4983197;28;20227;-59
2023/08/12 03:07:19;;;;;;;14.63;9.00;;;19.80;99.90;;;;;;4968292;28;20229;-60
2023/08/12 03:09:47;;;;;;;12.43;9.07;;;19.80;99.90;;;;;;5005049;28;20244;-60
2023/08/12 03:12:16;;;;;;;15.43;8.50;;;19.70;99.90;;;;;;5006678;28;20847;-59
2023/08/12 03:14:44;;;;;;;13.37;8.80;;;19.70;99.90;;;;;;5005746;28;20220;-59
2023/08/12 03:17:12;;;;;;;15.37;8.00;;;19.70;99.90;;;;;;5003717;28;20246;-59
2023/08/12 03:19:41;;;;;;;16.00;8.77;;;19.60;99.90;;;;;;5006701;28;20221;-59
2023/08/12 03:22:10;;;;;;;17.23;8.60;;;19.60;99.90;;;;;;5008463;28;20194;-59
2023/08/12 03:24:39;;;;;;;12.93;7.93;;;19.60;99.90;;;;;;4998254;28;20202;-59
2023/08/12 03:27:07;;;;;;;15.63;8.63;;;19.50;99.90;;;;;;5001157;28;20253;-59
2023/08/12 03:29:36;;;;;;;15.40;8.67;;;19.60;99.90;;;;;;5003117;28;20222;-60
2023/08/12 03:32:05;;;;;;;12.63;8.73;;;19.50;99.90;;;;;;5004306;28;20236;-59
2023/08/12 03:34:33;;;;;;;15.93;9.03;;;19.50;99.90;;;;;;5003230;28;20225;-60
2023/08/12 03:37:01;;;;;;;13.87;8.33;;;19.50;99.90;;;;;;5002181;28;20573;-60
2023/08/12 03:39:31;;;;;;;12.53;8.63;;;19.50;99.90;;;;;;5001476;28;20194;-60
2023/08/12 03:41:59;;;;;;;16.30;8.60;;;19.50;99.90;;;;;;5004724;28;20229;-60
2023/08/12 03:44:27;;;;;;;11.43;8.70;;;19.40;99.90;;;;;;5002454;28;20218;-60
2023/08/12 03:46:56;;;;;;;16.27;9.27;;;19.50;99.90;;;;;;4990630;28;20226;-60
2023/08/12 03:49:24;;;;;;;12.47;9.07;;;19.40;99.90;;;;;;5003980;28;20222;-60
2023/08/12 03:51:52;;;;;;;12.73;8.87;;;19.40;99.90;;;;;;5005360;28;20217;-60
2023/08/12 03:54:21;;;;;;;16.50;9.33;;;19.40;99.90;;;;;;5002557;28;20211;-60
2023/08/12 03:56:51;;;;;;;13.17;8.77;;;19.50;99.90;;;;;;5002503;28;20214;-60
2023/08/12 03:59:19;;;;;;;14.60;9.07;;;19.40;99.90;;;;;;5004621;28;20221;-60
2023/08/12 04:01:47;;;;;;;12.13;8.40;;;19.40;99.90;;;;;;5009381;28;20243;-60
2023/08/12 04:04:16;;;;;;;10.00;8.47;;;19.40;99.90;;;;;;5003998;28;20230;-59
2023/08/12 04:06:44;;;;;;;8.57;7.23;;;19.50;99.90;;;;;;5004313;28;20195;-60
2023/08/12 04:09:12;;;;;;;7.87;6.90;;;19.40;99.90;;;;;;5008525;28;20256;-60
2023/08/12 04:11:41;;;;;;;8.13;6.63;;;19.40;99.90;;;;;;5003160;28;20253;-60
2023/08/12 04:14:11;;;;;;;6.70;6.10;;;19.40;99.90;;;;;;5006328;28;20214;-59
2023/08/12 04:16:40;;;;;;;6.13;5.63;;;19.40;99.90;;;;;;5006962;28;20226;-60
2023/08/12 04:19:08;;;;;;;6.60;5.30;;;19.40;99.90;;;;;;5007274;28;20186;-59
2023/08/12 04:21:37;;;;;;;4.73;4.43;;;19.30;99.90;;;;;;4998107;28;20896;-59
2023/08/12 04:24:06;;;;;;;4.13;3.93;;;19.40;99.90;;;;;;4985952;28;20233;-59
2023/08/12 04:26:34;;;;;;;4.17;3.50;;;19.30;99.90;;;;;;5002866;28;20234;-60
2023/08/12 04:29:02;;;;;;;4.20;3.00;;;19.40;99.90;;;;;;5004183;28;20226;-60
2023/08/12 04:31:32;;;;;;;3.30;3.00;;;19.30;99.90;;;;;;5006011;28;20222;-60
2023/08/12 04:34:00;;;;;;;3.20;3.00;;;19.30;99.90;;;;;;4999275;28;20766;-60
2023/08/12 04:36:29;;;;;;;2.60;2.43;;;19.30;99.90;;;;;;5007405;28;20214;-61
2023/08/12 04:38:57;;;;;;;2.70;2.50;;;19.30;99.90;;;;;;5005723;28;20225;-60
2023/08/12 04:41:25;;;;;;;2.80;2.60;;;19.30;99.90;;;;;;5005564;28;20228;-60
2023/08/12 04:43:54;;;;;;;3.57;3.20;;;19.30;99.90;;;;;;5010781;28;20307;-60
2023/08/12 04:46:22;;;;;;;2.53;2.43;;;19.30;99.90;;;;;;5007174;28;20234;-59
2023/08/12 04:48:52;;;;;;;2.50;2.40;;;19.30;99.90;;;;;;5005355;28;20190;-60
2023/08/12 04:51:21;;;;;;;2.83;2.73;;;19.30;99.90;;;;;;5004652;28;20218;-59
2023/08/12 04:53:49;;;;;;;2.73;2.63;;;19.20;99.90;;;;;;5003175;28;20237;-59
2023/08/12 04:56:18;;;;;;;2.97;2.87;;;19.30;99.90;;;;;;4986496;28;20229;-60
2023/08/12 04:58:46;;;;;;;2.83;2.70;;;19.30;99.90;;;;;;5000188;28;20226;-60
2023/08/12 05:01:14;;;;;;;2.90;2.70;;;19.20;99.90;;;;;;5003237;28;20242;-60
2023/08/12 05:03:43;;;;;;;3.10;3.00;;;19.20;99.90;;;;;;5004694;28;20744;-60
2023/08/12 05:06:12;;;;;;;3.57;3.30;;;19.30;99.90;;;;;;5001913;28;20616;-59
2023/08/12 05:08:40;;;;;;;4.07;3.50;;;19.30;99.90;;;;;;5005142;28;20237;-60
2023/08/12 05:11:09;;;;;;;3.50;3.30;;;19.30;99.90;;;;;;5004046;28;20225;-59
2023/08/12 05:13:37;;;;;;;3.73;3.53;;;19.30;99.90;;;;;;4997455;28;20660;-60
2023/08/12 05:16:05;;;;;;;4.27;3.87;;;19.30;99.90;;;;;;4986279;28;20226;-60
2023/08/12 05:18:34;;;;;;;4.77;4.20;;;19.30;99.90;;;;;;5006787;28;20232;-60
2023/08/12 05:21:02;;;;;;;4.73;4.07;;;19.40;99.90;;;;;;4989738;28;20317;-60
2023/08/12 05:23:32;;;;;;;5.40;4.90;;;19.40;99.90;;;;;;5005810;28;20586;-60
2023/08/12 05:26:00;;;;;;;5.63;4.93;;;19.30;99.90;;;;;;5004651;28;20218;-60
2023/08/12 05:28:29;;;;;;;8.30;5.73;;;19.40;99.90;;;;;;5004344;28;20228;-60
2023/08/12 05:30:57;;;;;;;8.40;6.17;;;19.40;99.90;;;;;;5002541;28;20206;-60
2023/08/12 05:33:25;;;;;;;11.97;6.77;;;19.40;99.90;;;;;;5002132;28;20217;-59
2023/08/12 05:35:54;;;;;;;10.93;6.20;;;19.40;99.90;;;;;;4985485;28;20213;-59
2023/08/12 05:38:23;;;;;;;7.33;6.23;;;19.40;99.90;;;;;;5000762;28;20222;-59
2023/08/12 05:40:52;;;;;;;10.77;6.87;;;19.40;99.90;;;;;;5001088;28;20253;-60
2023/08/12 05:43:21;;;;;;;10.47;7.20;;;19.40;99.90;;;;;;5005692;28;20232;-60
2023/08/12 05:45:49;;;;;;;8.03;6.80;;;19.40;99.90;;;;;;5005478;28;20196;-60
2023/08/12 05:48:18;;;;;;;9.97;6.70;;;19.50;99.90;;;;;;4998574;28;20217;-60
2023/08/12 05:50:46;;;;;;;9.57;7.07;;;19.50;99.90;;;;;;5006005;28;20222;-60
2023/08/12 05:53:14;;;;;;;9.77;7.00;;;19.40;99.90;;;;;;5002251;28;20217;-59
2023/08/12 05:55:43;;;;;;;9.27;6.97;;;19.40;99.90;;;;;;4999833;28;20242;-60
2023/08/12 05:58:12;;;;;;;9.27;6.57;;;19.50;99.90;;;;;;5000176;28;20257;-60
2023/08/12 06:00:45;;;;;;;11.63;7.20;;;19.50;99.90;;;;;;4990576;28;20205;-60
2023/08/12 06:03:14;;;;;;;11.93;7.60;;;19.50;99.90;;;;;;4985647;28;20317;-60
2023/08/12 06:05:45;;;;;;;10.00;7.23;;;19.50;99.90;;;;;;5005424;28;20301;-60
2023/08/12 06:08:14;;;;;;;11.20;7.50;;;19.50;99.90;;;;;;4989822;28;21772;-60
2023/08/12 06:10:43;;;;;;;13.10;9.67;;;19.50;99.90;;;;;;5008408;28;20309;-61
2023/08/12 06:13:12;;;;;;;13.63;10.17;;;19.40;99.90;;;;;;5001241;28;20195;-60
2023/08/12 06:15:41;;;;;;;11.37;9.37;;;19.30;99.90;;;;;;5007912;28;20198;-60
2023/08/12 06:18:09;;;;;;;9.60;8.60;;;19.20;99.90;;;;;;5004009;28;20222;-60
2023/08/12 06:20:38;;;;;;;6.10;5.30;;;19.10;99.90;;;;;;5005086;28;20232;-60
2023/08/12 06:23:06;;;;;;;4.83;4.00;;;19.00;99.90;;;;;;5004023;28;20299;-60
2023/08/12 06:25:36;;;;;;;4.40;4.00;;;18.70;99.90;;;;;;5002941;28;20280;-60
2023/08/12 06:28:05;;;;;;;4.80;4.43;;;18.70;99.90;;;;;;5002347;28;20186;-60
2023/08/12 06:30:34;;;;;;;7.93;6.23;;;18.60;99.90;;;;;;5004398;28;20191;-60
2023/08/12 06:33:03;;;;;;;7.43;6.60;;;18.50;99.90;;;;;;5003292;28;20706;-60
2023/08/12 06:35:31;;;;;;;8.53;7.63;;;18.50;99.90;;;;;;5000449;28;20213;-60
2023/08/12 06:37:59;;;;;;;9.70;7.00;;;18.40;99.90;;;;;;5002644;28;20227;-59
2023/08/12 06:40:30;;;;;;;9.50;7.23;;;18.40;99.90;;;;;;5005962;28;20333;-60
2023/08/12 06:42:58;;;;;;;9.33;7.40;;;18.30;99.90;;;;;;4999788;28;20186;-60
2023/08/12 06:45:27;;;;;;;8.10;7.37;;;18.20;99.90;;;;;;5006570;28;20774;-60
2023/08/12 06:47:57;;;;;;;11.23;7.97;;;18.10;99.90;;;;;;5001213;28;20214;-59
2023/08/12 06:50:25;;;;;;;9.40;8.43;;;18.10;99.90;;;;;;5001603;28;20222;-60
2023/08/12 06:52:53;;;;;;;14.50;8.90;;;18.10;99.90;;;;;;5001514;28;21055;-60
2023/08/12 06:55:22;;;;;;;11.97;7.70;;;18.10;99.90;;;;;;4982683;28;20317;-60
2023/08/12 06:57:50;;;;;;;17.83;10.00;;;18.00;99.90;;;;;;5002925;28;20206;-60
2023/08/12 07:00:18;;;;;;;10.83;8.60;;;18.00;99.90;;;;;;5002088;28;20237;-60
2023/08/12 07:02:47;;;;;;;14.13;9.30;;;17.90;99.90;;;;;;5000417;28;20222;-60
2023/08/12 07:05:17;;;;;;;15.73;10.10;;;17.90;99.90;;;;;;5005597;28;20218;-59
2023/08/12 07:07:45;;;;;;;14.93;11.60;;;17.90;99.90;;;;;;5009218;28;20598;-59
2023/08/12 07:10:13;;;;;;;16.07;11.70;;;17.90;99.90;;;;;;4991404;28;20233;-59
2023/08/12 07:12:41;;;;;;;19.20;12.13;;;17.90;99.90;;;;;;4984934;28;20199;-59
2023/08/12 07:15:11;;;;;;;14.13;12.17;;;17.90;99.90;;;;;;5007974;28;20275;-60
2023/08/12 07:17:40;;;;;;;17.50;12.33;;;17.90;99.90;;;;;;5000923;28;20213;-59
2023/08/12 07:20:09;;;;;;;13.97;12.23;;;18.00;99.90;;;;;;5005338;28;20222;-60
2023/08/12 07:22:39;;;;;;;15.77;11.47;;;18.00;99.90;;;;;;5003868;28;20727;-60
2023/08/12 07:25:08;;;;;;;15.47;10.93;;;18.10;99.90;;;;;;5003021;28;20198;-59
2023/08/12 07:27:36;;;;;;;14.23;9.90;;;18.30;99.90;;;;;;5008537;28;20245;-59
2023/08/12 07:30:05;;;;;;;10.80;9.13;;;18.60;99.90;;;;;;5003646;28;20786;-59
2023/08/12 07:32:34;;;;;;;9.97;8.03;;;18.60;99.90;;;;;;5002036;28;20317;-59
2023/08/12 07:35:02;;;;;;;13.23;8.77;;;18.50;99.90;;;;;;5005508;28;20270;-59
2023/08/12 07:37:30;;;;;;;9.20;8.30;;;18.40;99.90;;;;;;5003415;28;20712;-59
2023/08/12 07:40:00;;;;;;;15.53;8.03;;;18.50;99.90;;;;;;5006602;28;20305;-59
2023/08/12 07:42:29;;;;;;;10.03;7.60;;;18.60;99.90;;;;;;5007327;28;20656;-59
2023/08/12 07:44:57;;;;;;;8.53;5.67;;;18.70;99.90;;;;;;5004992;28;20229;-60
2023/08/12 07:47:25;;;;;;;9.10;5.93;;;18.70;99.90;;;;;;5007622;28;20671;-59
2023/08/12 07:49:54;;;;;;;6.67;4.60;;;18.80;99.90;;;;;;5014509;28;20218;-60
2023/08/12 07:52:22;;;;;;;6.77;4.93;;;19.00;99.90;;;;;;5009212;28;20221;-60
2023/08/12 07:54:50;;;;;;;6.63;4.70;;;19.10;99.90;;;;;;5008520;28;20289;-60
2023/08/12 07:57:23;;;;;;;6.03;3.63;;;19.30;99.90;;;;;;5005470;28;20214;-59
2023/08/12 07:59:52;;;;;;;4.97;3.23;;;19.40;99.90;;;;;;5004188;28;20222;-60
2023/08/12 08:02:20;;;;;;;4.63;3.40;;;19.30;99.90;;;;;;5001059;28;20245;-60
2023/08/12 08:04:49;;;;;;;5.70;3.20;;;19.40;99.90;;;;;;5000393;28;22841;-60
2023/08/12 08:07:17;;;;;;;2.83;2.60;;;19.40;99.90;;;;;;4998979;28;20807;-59
2023/08/12 08:09:46;;;;;;;2.97;2.73;;;19.50;99.90;;;;;;5006640;28;20214;-60
2023/08/12 08:12:14;;;;;;;4.87;2.70;;;19.50;99.90;;;;;;5002899;28;20222;-59
2023/08/12 08:14:44;;;;;;;3.73;2.50;;;19.50;99.90;;;;;;5001536;28;20243;-59
2023/08/12 08:17:12;;;;;;;2.83;2.43;;;19.50;99.90;;;;;;4999334;28;20214;-58
2023/08/12 08:19:41;;;;;;;3.23;2.57;;;19.70;99.90;;;;;;5005217;28;20229;-59
2023/08/12 08:22:09;;;;;;;4.50;2.60;;;19.90;99.90;;;;;;5006335;28;20556;-58
2023/08/12 08:24:38;;;;;;;5.27;2.63;;;20.20;99.90;;;;;;5008647;28;20187;-59
2023/08/12 08:27:07;;;;;;;9.17;2.80;;;20.30;99.90;;;;;;4992676;28;21584;-58
2023/08/12 08:29:35;;;;;;;3.33;2.33;;;20.40;99.90;;;;;;5007747;28;20586;-58
2023/08/12 08:32:05;;;;;;;2.70;2.50;;;20.50;99.90;;;;;;5003676;28;20720;-59
2023/08/12 08:34:34;;;;;;;3.77;2.40;;;20.60;99.90;;;;;;5007744;28;20227;-60
2023/08/12 08:37:02;;;;;;;2.50;1.93;;;20.90;99.90;;;;;;5007640;28;20187;-59
2023/08/12 08:39:31;;;;;;;2.43;2.17;;;21.10;99.90;;;;;;5006471;28;20563;-58
2023/08/12 08:42:00;;;;;;;5.47;2.57;;;21.20;99.90;;;;;;4985003;28;20736;-58
2023/08/12 08:44:31;;;;;;;3.83;2.50;;;21.10;99.90;;;;;;5007425;28;20223;-58
2023/08/12 08:47:00;;;;;;;5.33;2.73;;;20.90;99.90;;;;;;5001201;28;20224;-59
2023/08/12 08:49:31;;;;;;;3.33;2.20;;;20.80;99.90;;;;;;4983275;28;20299;-58
2023/08/12 08:52:01;;;;;;;2.83;2.30;;;20.50;99.90;;;;;;5003320;28;20194;-59
2023/08/12 08:54:29;;;;;;;4.30;2.20;;;20.40;99.90;;;;;;5007969;28;20190;-60
2023/08/12 08:56:58;;;;;;;4.93;2.27;;;20.60;99.90;;;;;;5001171;28;20586;-59
2023/08/12 08:59:35;;;;;;;3.43;2.10;;;20.90;99.90;;;;;;5004938;28;20325;-59
2023/08/12 09:02:05;;;;;;;4.30;2.10;;;20.90;99.90;;;;;;5004281;28;20727;-59
2023/08/12 09:04:35;;;;;;;3.87;2.20;;;20.80;98.40;;;;;;5009256;28;20231;-59
2023/08/12 09:07:05;;;;;;;3.13;2.30;;;20.70;98.40;;;;;;4998189;28;20291;-58
2023/08/12 09:09:35;;;;;;;6.77;2.30;;;20.70;99.90;;;;;;5005591;28;20317;-59
2023/08/12 09:12:06;;;;;;;2.93;1.77;;;20.70;97.60;;;;;;5007811;28;20221;-59
2023/08/12 09:14:35;;;;;;;3.73;2.20;;;20.80;99.90;;;;;;5005610;28;20292;-58
2023/08/12 09:17:03;;;;;;;4.93;2.03;;;20.90;99.90;;;;;;5005531;28;21316;-58
2023/08/12 09:19:32;;;;;;;7.53;2.20;;;20.90;94.50;;;;;;5007464;28;20258;-58
2023/08/12 09:22:04;;;;;;;6.83;2.20;;;20.90;92.70;;;;;;5007940;28;20277;-58
2023/08/12 09:24:32;;;;;;;5.40;2.00;;;21.00;98.90;;;;;;5002705;28;20208;-59
2023/08/12 09:27:01;;;;;;;4.37;1.87;;;21.30;97.00;;;;;;5008605;28;20562;-59
2023/08/12 09:29:31;;;;;;;2.60;1.77;;;22.10;99.70;;;;;;5005702;28;20663;-59
2023/08/12 09:32:12;;;;;;;4.43;1.70;;;23.00;93.70;;;;;;4984724;28;20234;-59
2023/08/12 09:34:48;;;;;;;4.50;1.90;;;23.70;43.10;;;;;;5002180;28;20647;-59
2023/08/12 09:37:19;;;;;;;4.93;1.60;;;24.70;9.40;;;;;;5003293;28;20225;-60
2023/08/12 09:39:48;;;;;;;3.47;1.90;;;25.10;1.00;;;;;;5003932;28;20588;-60
2023/08/12 09:42:17;;;;;;;2.75;1.60;;;25.20;1.00;;;;;;5000448;28;20229;-60
2023/08/12 09:44:46;;;;;;;5.93;2.00;;;25.40;1.00;;;;;;4999629;28;20947;-60
2023/08/12 09:47:14;;;;;;;2.67;1.92;;;24.90;1.00;;;;;;5004464;28;20303;-59
2023/08/12 09:49:43;;;;;;;4.73;1.60;;;24.20;1.00;;;;;;5005570;28;20238;-59
2023/08/12 09:52:11;;;;;;;4.70;1.90;;;23.70;1.00;;;;;;5003943;28;20201;-59
2023/08/12 09:54:43;;;;;;;3.03;1.80;;;23.40;1.00;;;;;;5005451;28;20198;-59
2023/08/12 09:57:14;;;;;;;5.57;1.97;;;23.30;1.00;;;;;;5000932;28;20218;-59
2023/08/12 09:59:44;;;;;;;2.37;1.50;;;23.30;1.00;;;;;;5001482;28;20748;-59
2023/08/12 10:02:18;;;;;;;5.10;2.00;;;23.30;1.00;;;;;;5002269;28;20222;-58
2023/08/12 10:04:50;;;;;;;3.90;1.80;;;23.10;1.00;;;;;;5006823;28;20235;-58
2023/08/12 10:07:20;;;;;;;2.77;1.60;;;23.20;1.00;;;;;;5005139;28;20224;-59
2023/08/12 10:09:50;;;;;;;3.60;1.93;;;23.60;1.00;;;;;;5005292;28;20686;-59
2023/08/12 10:12:19;;;;;;;5.28;1.70;;;24.20;1.00;;;;;;5006524;28;20253;-59
2023/08/12 10:14:49;;;;;;;1.98;1.50;;;24.60;1.00;;;;;;4999302;28;20759;-59
2023/08/12 10:17:18;;;;;;;2.47;1.60;;;24.70;1.00;;;;;;5002057;28;20321;-58
2023/08/12 10:20:08;;;;;;;3.50;1.52;;;24.70;1.00;;;;;;5003170;28;20267;-59
2023/08/12 10:22:39;;;;;;;3.03;1.60;;;24.60;1.00;;;;;;4998210;28;20238;-59
2023/08/12 10:25:10;;;;;;;3.50;1.75;;;24.50;1.00;;;;;;4998729;28;20271;-58
2023/08/12 10:27:38;;;;;;;9.00;1.75;;;24.70;1.00;;;;;;5005440;28;20651;-59
2023/08/12 10:30:09;;;;;;;5.03;1.60;;;25.00;1.00;;;;;;5002946;28;20217;-59
2023/08/12 10:32:38;;;;;;;3.60;1.75;;;25.00;1.00;;;;;;5002835;28;20239;-59
2023/08/12 10:35:08;;;;;;;3.80;1.80;;;25.70;1.00;;;;;;5004512;28;20654;-59
2023/08/12 10:37:36;;;;;;;3.22;1.73;;;26.60;1.00;;;;;;5007788;28;20312;-59
2023/08/12 10:40:07;;;;;;;5.45;1.70;;;26.50;1.00;;;;;;5003515;28;20219;-59
2023/08/12 10:42:44;;;;;;;4.90;1.92;;;26.20;1.00;;;;;;5011594;28;20287;-59
2023/08/12 10:45:13;;;;;;;4.22;1.70;;;25.50;1.00;;;;;;4997268;28;20224;-59
2023/08/12 10:47:49;;;;;;;1.98;1.63;;;25.50;1.00;;;;;;5006153;28;20301;-59
2023/08/12 10:50:22;;;;;;;6.03;1.67;;;26.00;1.00;;;;;;5005071;28;20228;-60
2023/08/12 10:52:54;;;;;;;3.22;1.73;;;26.70;99.90;;;;;;5005852;28;20223;-59
2023/08/12 10:55:23;;;;;;;2.25;1.60;;;27.30;47.00;;;;;;5009647;28;20235;-59
2023/08/12 10:57:56;;;;;;;3.97;1.55;;;27.20;99.90;;;;;;4989826;28;20194;-59
2023/08/12 11:00:26;;;;;;;2.65;1.70;;;27.50;99.90;;;;;;5003675;28;20636;-59
2023/08/12 11:02:55;;;;;;;3.50;1.65;;;28.30;1.00;;;;;;5004704;28;20247;-59
2023/08/12 11:05:25;;;;;;;3.25;1.63;;;28.40;99.90;;;;;;5009203;28;20592;-59
2023/08/12 11:07:58;;;;;;;6.20;1.70;;;28.30;1.00;;;;;;5008547;28;20230;-60
2023/08/12 11:10:28;;;;;;;3.10;1.83;;;28.60;99.90;;;;;;5005517;28;20230;-59
2023/08/12 11:13:03;;;;;;;4.68;1.83;;;28.30;99.90;;;;;;5008273;28;20182;-59
2023/08/12 11:15:33;;;;;;;5.07;1.80;;;28.40;1.00;;;;;;5012702;28;20191;-64
2023/08/12 11:18:04;;;;;;;4.72;1.90;;;28.50;99.90;;;;;;5010806;28;20268;-64
2023/08/12 11:20:33;;;;;;;4.28;1.65;;;28.70;99.90;;;;;;5016899;28;20221;-64
2023/08/12 11:23:01;;;;;;;3.20;1.58;;;28.70;99.90;;;;;;5013210;28;20226;-64
2023/08/12 11:25:31;;;;;;;2.05;1.55;;;28.90;1.00;;;;;;5012832;28;20276;-64
2023/08/12 11:28:05;;;;;;;2.92;1.83;;;28.70;1.00;;;;;;5007757;28;20195;-63
2023/08/12 11:30:33;;;;;;;2.42;1.70;;;28.50;99.90;;;;;;5018825;28;20561;-64
2023/08/12 11:33:03;;;;;;;2.70;1.80;;;28.50;99.90;;;;;;5011764;28;20229;-64
2023/08/12 11:35:32;;;;;;;4.30;1.70;;;28.70;99.90;;;;;;5011933;28;20251;-65
2023/08/12 11:38:03;;;;;;;5.28;2.10;;;28.90;99.90;;;;;;5003112;28;20218;-64
2023/08/12 11:40:31;;;;;;;6.45;1.70;;;28.90;99.90;;;;;;5012116;28;20222;-64
2023/08/12 11:43:00;;;;;;;4.20;2.00;;;28.80;99.90;;;;;;5011309;28;20313;-64
2023/08/12 11:45:29;;;;;;;1.63;1.48;;;28.80;99.90;;;;;;5007822;28;20232;-65
2023/08/12 11:47:58;;;;;;;4.32;1.67;;;28.70;1.00;;;;;;5008861;28;20218;-65
2023/08/12 11:50:27;;;;;;;3.58;1.48;;;28.50;99.90;;;;;;5017102;28;20676;-65
2023/08/12 11:52:58;;;;;;;4.57;1.60;;;28.40;99.90;;;;;;5005399;28;20230;-64
2023/08/12 11:55:27;;;;;;;3.90;1.88;;;28.50;99.90;;;;;;5001725;28;20214;-65
2023/08/12 11:57:55;;;;;;;4.20;1.52;;;28.30;99.90;;;;;;5002386;28;20679;-64
2023/08/12 12:00:26;;;;;;;4.75;1.52;;;28.20;99.90;;;;;;5011387;28;20190;-64
2023/08/12 12:02:57;;;;;;;1.45;1.35;;;28.00;99.90;;;;;;5014722;28;20225;-64
2023/08/12 12:05:29;;;;;;;3.67;1.55;;;27.50;99.90;;;;;;4990357;28;20225;-64
2023/08/12 12:07:59;;;;;;;5.28;1.77;;;27.60;99.90;;;;;;5011422;28;20211;-64
2023/08/12 12:10:30;;;;;;;4.25;1.90;;;27.20;99.90;;;;;;5005021;28;20649;-64
2023/08/12 12:13:05;;;;;;;4.00;1.70;;;26.90;1.00;;;;;;5007242;28;20247;-64
2023/08/12 12:15:54;;;;;;;1.58;1.45;;;26.70;29.50;;;;;;5005192;28;20197;-64
2023/08/12 12:18:26;;;;;;;2.17;1.48;;;26.60;1.00;;;;;;4993670;28;20223;-64
2023/08/12 12:20:56;;;;;;;4.07;1.67;;;26.70;99.90;;;;;;5008523;28;20226;-64
2023/08/12 12:23:29;;;;;;;2.47;1.67;;;27.10;1.00;;;;;;5006648;28;20247;-64
2023/08/12 12:26:00;;;;;;;4.00;1.80;;;27.40;99.90;;;;;;5000461;28;20338;-65
2023/08/12 12:28:29;;;;;;;2.38;1.73;;;27.30;99.90;;;;;;5009960;28;20229;-64
2023/08/12 12:30:58;;;;;;;3.72;1.80;;;26.70;99.90;;;;;;5004551;28;20203;-64
2023/08/12 12:33:30;;;;;;;1.52;1.42;;;26.40;99.90;;;;;;4991248;28;20262;-65
2023/08/12 12:35:58;;;;;;;2.58;1.77;;;26.40;91.10;;;;;;5006672;28;20215;-64
2023/08/12 12:38:30;;;;;;;4.47;1.80;;;26.10;66.20;;;;;;5006422;28;20782;-64
2023/08/12 12:40:59;;;;;;;3.83;1.70;;;26.00;99.90;;;;;;5007263;28;20233;-65
2023/08/12 12:43:27;;;;;;;2.97;1.77;;;26.10;99.90;;;;;;5009880;28;20755;-64
2023/08/12 12:45:55;;;;;;;3.30;1.87;;;26.20;7.80;;;;;;4991845;28;20294;-64
2023/08/12 12:48:24;;;;;;;3.50;2.07;;;25.90;1.00;;;;;;5007133;28;20264;-64
2023/08/12 12:50:54;;;;;;;3.30;1.70;;;25.80;99.90;;;;;;5006452;28;20245;-65
2023/08/12 12:53:22;;;;;;;2.33;1.90;;;26.10;1.00;;;;;;4985879;28;20221;-64